Time;durP1;ratioP1;P1;durP2;ratioP2;P2;SDS_P1;SDS_P2;PMS_P1;PMS_P2;Temp;Humidity;BMP_temperature;BMP_pressure;BME280_temperature;BME280_humidity;BME280_pressure;Samples;Min_cycle;Max_cycle;Signal;HPM_P1;HPM_P2
2023/12/06 00:01:19;;;;;;;;;;;;;;;0.84;78.86;99448.16;5076413;28;19920;-71
2023/12/06 00:03:49;;;;;;;;;;;;;;;0.83;78.92;99446.47;5076287;28;19921;-71
2023/12/06 00:06:20;;;;;;;;;;;;;;;0.79;78.72;99448.84;5076718;28;19920;-72
2023/12/06 00:08:49;;;;;;;;;;;;;;;0.75;78.69;99447.00;5076603;28;19920;-71
2023/12/06 00:11:17;;;;;;;;;;;;;;;0.74;78.74;99448.69;5076335;28;19920;-71
2023/12/06 00:13:46;;;;;;;;;;;;;;;0.74;79.07;99443.66;5075797;28;20266;-73
2023/12/06 00:16:14;;;;;;;;;;;;;;;0.75;79.35;99442.84;5075920;28;19927;-72
2023/12/06 00:18:45;;;;;;;;;;;;;;;0.70;78.70;99444.34;5076313;28;19920;-72
2023/12/06 00:21:16;;;;;;;;;;;;;;;0.67;78.70;99434.22;5076030;28;19960;-72
2023/12/06 00:23:44;;;;;;;;;;;;;;;0.63;78.58;99442.41;5075978;28;19921;-72
2023/12/06 00:26:14;;;;;;;;;;;;;;;0.67;78.44;99439.22;5074895;28;19921;-71
2023/12/06 00:28:42;;;;;;;;;;;;;;;0.69;78.58;99447.66;5076066;28;20362;-71
2023/12/06 00:31:11;;;;;;;;;;;;;;;0.65;79.32;99446.69;5074533;28;19925;-71
2023/12/06 00:33:40;;;;;;;;;;;;;;;0.65;78.90;99438.28;5076080;28;19920;-71
2023/12/06 00:36:09;;;;;;;;;;;;;;;0.70;79.30;99444.34;5076292;28;19920;-72
2023/12/06 00:38:38;;;;;;;;;;;;;;;0.70;78.67;99444.34;5075685;28;20007;-71
2023/12/06 00:41:07;;;;;;;;;;;;;;;0.71;79.36;99445.19;5075988;28;19974;-71
2023/12/06 00:43:35;;;;;;;;;;;;;;;0.74;78.80;99438.63;5075832;28;19970;-72
2023/12/06 00:46:04;;;;;;;;;;;;;;;0.71;78.57;99437.66;5075821;28;19926;-71
2023/12/06 00:48:33;;;;;;;;;;;;;;;0.71;78.91;99436.00;5075717;28;19927;-71
2023/12/06 00:51:02;;;;;;;;;;;;;;;0.71;79.07;99436.00;5075349;28;19982;-71
2023/12/06 00:53:30;;;;;;;;;;;;;;;0.67;78.46;99434.22;5075757;28;19924;-72
2023/12/06 00:56:00;;;;;;;;;;;;;;;0.64;78.52;99444.16;5075285;28;19928;-73
2023/12/06 00:58:29;;;;;;;;;;;;;;;0.62;79.19;99445.75;5075563;28;19921;-70
2023/12/06 01:00:57;;;;;;;;;;;;;;;0.57;78.48;99445.59;5075540;28;20278;-71
2023/12/06 01:03:26;;;;;;;;;;;;;;;0.56;79.03;99441.38;5075002;28;19920;-72
2023/12/06 01:05:55;;;;;;;;;;;;;;;0.57;78.86;99442.22;5075141;28;19960;-72
2023/12/06 01:08:25;;;;;;;;;;;;;;;0.55;78.81;99443.84;5075035;28;19920;-71
2023/12/06 01:10:54;;;;;;;;;;;;;;;0.54;78.95;99444.63;5075033;28;20324;-72
2023/12/06 01:13:24;;;;;;;;;;;;;;;0.51;79.25;99436.97;5075248;28;19935;-72
2023/12/06 01:15:54;;;;;;;;;;;;;;;0.54;79.16;99442.09;5075261;28;19925;-72
2023/12/06 01:18:22;;;;;;;;;;;;;;;0.55;79.41;99436.31;5075141;28;19925;-72
2023/12/06 01:20:51;;;;;;;;;;;;;;;0.53;79.00;99441.25;5074789;28;19927;-72
2023/12/06 01:23:20;;;;;;;;;;;;;;;0.55;79.27;99448.84;5075123;28;20412;-72
2023/12/06 01:25:48;;;;;;;;;;;;;;;0.55;79.31;99453.88;5074261;28;19921;-71
2023/12/06 01:28:17;;;;;;;;;;;;;;;0.52;79.98;99449.59;5073677;28;19920;-72
2023/12/06 01:30:47;;;;;;;;;;;;;;;0.52;79.89;99443.72;5074540;28;19920;-71
2023/12/06 01:33:15;;;;;;;;;;;;;;;0.53;80.06;99440.38;5074918;28;19920;-71
2023/12/06 01:35:44;;;;;;;;;;;;;;;0.55;79.26;99447.16;5074752;28;19920;-72
2023/12/06 01:38:12;;;;;;;;;;;;;;;0.58;79.66;99443.91;5074797;28;19928;-72
2023/12/06 01:40:43;;;;;;;;;;;;;;;0.62;79.57;99440.72;5074671;28;19921;-71
2023/12/06 01:43:11;;;;;;;;;;;;;;;0.64;79.49;99441.63;5074749;28;19920;-71
2023/12/06 01:45:40;;;;;;;;;;;;;;;0.65;79.55;99429.13;5074249;28;19920;-72
2023/12/06 01:48:10;;;;;;;;;;;;;;;0.69;79.90;99432.59;5074313;28;19927;-72
2023/12/06 01:50:41;;;;;;;;;;;;;;;0.71;79.54;99436.00;5074615;28;20297;-72
2023/12/06 01:53:10;;;;;;;;;;;;;;;0.74;80.26;99441.16;5074324;28;20362;-71
2023/12/06 01:55:39;;;;;;;;;;;;;;;0.75;79.82;99432.78;5072949;28;19920;-71
2023/12/06 01:58:07;;;;;;;;;;;;;;;0.75;79.70;99421.88;5073253;28;20449;-71
2023/12/06 02:00:36;;;;;;;;;;;;;;;0.72;79.63;99422.63;5074751;28;19927;-71
2023/12/06 02:03:05;;;;;;;;;;;;;;;0.71;80.27;99417.56;5074072;28;19928;-72
2023/12/06 02:05:35;;;;;;;;;;;;;;;0.66;80.11;99423.31;5074074;28;20003;-71
2023/12/06 02:08:05;;;;;;;;;;;;;;;0.68;80.20;99431.75;5074275;28;19944;-71
2023/12/06 02:10:34;;;;;;;;;;;;;;;0.70;79.90;99416.72;5074318;28;20347;-71
2023/12/06 02:13:03;;;;;;;;;;;;;;;0.70;80.29;99419.22;5074334;28;19943;-72
2023/12/06 02:15:31;;;;;;;;;;;;;;;0.69;79.93;99427.59;5074338;28;19924;-72
2023/12/06 02:18:01;;;;;;;;;;;;;;;0.67;79.35;99424.16;5073925;28;19928;-72
2023/12/06 02:20:30;;;;;;;;;;;;;;;0.70;79.34;99420.91;5056393;28;19921;-72
2023/12/06 02:23:00;;;;;;;;;;;;;;;0.68;79.97;99416.69;5074448;28;20362;-71
2023/12/06 02:25:30;;;;;;;;;;;;;;;0.64;79.62;99403.97;5074244;28;19926;-71
2023/12/06 02:27:59;;;;;;;;;;;;;;;0.61;79.41;99411.38;5072746;28;20382;-71
2023/12/06 02:30:27;;;;;;;;;;;;;;;0.63;79.70;99407.28;5073833;28;19965;-72
2023/12/06 02:32:56;;;;;;;;;;;;;;;0.62;79.94;99406.41;5089393;28;20332;-72
2023/12/06 02:35:27;;;;;;;;;;;;;;;0.64;80.02;99403.97;5073450;28;19963;-71
2023/12/06 02:37:57;;;;;;;;;;;;;;;0.57;80.35;99397.03;5075909;28;19920;-72
2023/12/06 02:40:27;;;;;;;;;;;;;;;0.57;80.10;99409.59;5078551;28;19920;-73
2023/12/06 02:42:57;;;;;;;;;;;;;;;0.58;80.71;99401.25;5077917;28;20353;-71
2023/12/06 02:45:25;;;;;;;;;;;;;;;0.59;80.24;99392.91;5077921;28;20363;-72
2023/12/06 02:47:54;;;;;;;;;;;;;;;0.52;80.68;99393.50;5077692;28;19924;-70
2023/12/06 02:50:23;;;;;;;;;;;;;;;0.51;81.13;99391.78;5078118;28;20429;-72
2023/12/06 02:52:51;;;;;;;;;;;;;;;0.57;80.21;99397.03;5077659;28;20007;-71
2023/12/06 02:55:20;;;;;;;;;;;;;;;0.57;80.45;99397.03;5077960;28;19920;-71
2023/12/06 02:57:48;;;;;;;;;;;;;;;0.55;81.32;99388.59;5077730;28;19920;-71
2023/12/06 03:00:19;;;;;;;;;;;;;;;0.54;81.16;99391.91;5077574;28;20370;-71
2023/12/06 03:02:48;;;;;;;;;;;;;;;0.57;81.66;99397.91;5077565;28;19927;-72
2023/12/06 03:05:16;;;;;;;;;;;;;;;0.63;81.88;99397.22;5077478;28;20011;-70
2023/12/06 03:07:45;;;;;;;;;;;;;;;0.59;81.77;99392.91;5077444;28;20382;-71
2023/12/06 03:10:14;;;;;;;;;;;;;;;0.58;81.23;99382.00;5077687;28;20504;-72
2023/12/06 03:12:43;;;;;;;;;;;;;;;0.57;81.58;99402.06;5077409;28;20007;-72
2023/12/06 03:15:11;;;;;;;;;;;;;;;0.60;81.72;99397.16;5077590;28;19920;-71
2023/12/06 03:17:41;;;;;;;;;;;;;;;0.53;81.70;99390.19;5077321;28;19921;-72
2023/12/06 03:20:10;;;;;;;;;;;;;;;0.50;81.88;99395.13;5077560;28;19926;-71
2023/12/06 03:22:39;;;;;;;;;;;;;;;0.46;82.11;99393.28;5077415;28;19943;-71
2023/12/06 03:25:08;;;;;;;;;;;;;;;0.47;82.18;99387.47;5077334;28;19967;-72
2023/12/06 03:27:36;;;;;;;;;;;;;;;0.43;82.69;99388.19;5077050;28;19920;-71
2023/12/06 03:30:06;;;;;;;;;;;;;;;0.46;82.72;99390.78;5075694;28;19963;-71
2023/12/06 03:32:34;;;;;;;;;;;;;;;0.40;82.89;99393.94;5075894;28;19924;-72
2023/12/06 03:35:05;;;;;;;;;;;;;;;0.40;82.87;99393.09;5075960;28;19924;-70
2023/12/06 03:37:34;;;;;;;;;;;;;;;0.39;83.08;99383.84;5077135;28;20086;-72
2023/12/06 03:40:03;;;;;;;;;;;;;;;0.36;83.49;99386.28;5076679;28;19920;-71
2023/12/06 03:42:31;;;;;;;;;;;;;;;0.41;83.79;99385.59;5077670;28;19921;-71
2023/12/06 03:45:00;;;;;;;;;;;;;;;0.42;83.35;99381.44;5076990;28;19950;-71
2023/12/06 03:47:30;;;;;;;;;;;;;;;0.40;83.75;99388.06;5076818;28;20027;-72
2023/12/06 03:49:59;;;;;;;;;;;;;;;0.38;84.22;99384.66;5076270;28;20350;-71
2023/12/06 03:52:30;;;;;;;;;;;;;;;0.35;84.28;99387.06;5077012;28;19920;-71
2023/12/06 03:54:58;;;;;;;;;;;;;;;0.32;84.38;99386.94;5092293;28;20419;-71
2023/12/06 03:57:27;;;;;;;;;;;;;;;0.33;84.21;99381.13;5076595;28;19924;-71
2023/12/06 03:59:56;;;;;;;;;;;;;;;0.32;84.03;99381.94;5077039;28;19928;-70
2023/12/06 04:02:25;;;;;;;;;;;;;;;0.30;84.43;99386.91;5075198;28;19924;-72
2023/12/06 04:04:53;;;;;;;;;;;;;;;0.33;84.85;99382.00;5076673;28;19920;-71
2023/12/06 04:07:22;;;;;;;;;;;;;;;0.39;85.15;99386.34;5077132;28;19966;-71
2023/12/06 04:09:52;;;;;;;;;;;;;;;0.38;84.95;99389.69;5075638;28;19927;-70
2023/12/06 04:12:20;;;;;;;;;;;;;;;0.34;84.98;99382.81;5075053;28;19920;-71
2023/12/06 04:14:49;;;;;;;;;;;;;;;0.37;85.01;99388.81;5076443;28;19921;-71
2023/12/06 04:17:17;;;;;;;;;;;;;;;0.39;85.37;99381.34;5076440;28;19925;-71
2023/12/06 04:19:46;;;;;;;;;;;;;;;0.36;85.78;99384.59;5076658;28;20270;-71
2023/12/06 04:22:14;;;;;;;;;;;;;;;0.35;85.34;99379.53;5076203;28;20116;-72
2023/12/06 04:24:43;;;;;;;;;;;;;;;0.32;86.29;99379.41;5076263;28;19956;-70
2023/12/06 04:27:13;;;;;;;;;;;;;;;0.32;86.35;99384.44;5077073;28;20306;-71
2023/12/06 04:29:42;;;;;;;;;;;;;;;0.35;85.66;99384.53;5076176;28;19921;-71
2023/12/06 04:32:10;;;;;;;;;;;;;;;0.34;86.56;99372.78;5058073;28;19920;-71
2023/12/06 04:34:48;;;;;;;;;;;;;;;0.39;86.17;99376.31;5075722;28;19928;-71
2023/12/06 04:37:16;;;;;;;;;;;;;;;0.37;86.63;99376.28;5076123;28;19920;-71
2023/12/06 04:39:45;;;;;;;;;;;;;;;0.36;86.12;99381.25;5075771;28;20007;-70
2023/12/06 04:42:15;;;;;;;;;;;;;;;0.41;86.60;99388.13;5076030;28;19956;-71
2023/12/06 04:44:44;;;;;;;;;;;;;;;0.43;86.26;99385.69;5075892;28;20393;-71
2023/12/06 04:47:12;;;;;;;;;;;;;;;0.41;87.12;99382.22;5075492;28;20003;-71
2023/12/06 04:49:42;;;;;;;;;;;;;;;0.42;86.89;99381.44;5075429;28;20023;-71
2023/12/06 04:52:10;;;;;;;;;;;;;;;0.41;86.77;99379.72;5075248;28;19926;-71
2023/12/06 04:54:39;;;;;;;;;;;;;;;0.38;86.95;99384.66;5075325;28;19920;-71
2023/12/06 04:57:08;;;;;;;;;;;;;;;0.41;87.49;99379.72;5075371;28;19921;-70
2023/12/06 04:59:38;;;;;;;;;;;;;;;0.41;86.82;99380.59;5074955;28;19967;-71
2023/12/06 05:02:08;;;;;;;;;;;;;;;0.40;87.01;99376.38;5074688;28;19921;-71
2023/12/06 05:04:36;;;;;;;;;;;;;;;0.40;87.99;99378.03;5075168;28;19956;-70
2023/12/06 05:07:05;;;;;;;;;;;;;;;0.44;87.54;99379.84;5091312;28;20025;-71
2023/12/06 05:09:35;;;;;;;;;;;;;;;0.48;87.59;99381.66;5075033;28;20007;-70
2023/12/06 05:12:04;;;;;;;;;;;;;;;0.43;87.49;99380.66;5075948;28;20327;-70
2023/12/06 05:14:32;;;;;;;;;;;;;;;0.42;87.57;99386.47;5075119;28;20282;-70
2023/12/06 05:17:02;;;;;;;;;;;;;;;0.44;87.49;99379.84;5075508;28;19962;-70
2023/12/06 05:19:31;;;;;;;;;;;;;;;0.45;87.87;99379.03;5075397;28;19920;-70
2023/12/06 05:21:59;;;;;;;;;;;;;;;0.49;87.82;99378.34;5074800;28;19920;-70
2023/12/06 05:24:28;;;;;;;;;;;;;;;0.47;87.59;99374.94;5074711;28;19920;-70
2023/12/06 05:26:56;;;;;;;;;;;;;;;0.43;87.93;99373.13;5075113;28;20401;-70
2023/12/06 05:29:28;;;;;;;;;;;;;;;0.41;88.16;99382.22;5074377;28;19934;-71
2023/12/06 05:31:57;;;;;;;;;;;;;;;0.44;87.85;99377.31;5090747;28;19974;-70
2023/12/06 05:34:27;;;;;;;;;;;;;;;0.45;88.83;99376.53;5074692;28;19931;-70
2023/12/06 05:36:57;;;;;;;;;;;;;;;0.41;88.04;99375.56;5074075;28;19974;-70
2023/12/06 05:39:26;;;;;;;;;;;;;;;0.39;88.74;99381.34;5074786;28;20378;-70
2023/12/06 05:41:54;;;;;;;;;;;;;;;0.38;88.91;99379.66;5073818;28;20282;-70
2023/12/06 05:44:23;;;;;;;;;;;;;;;0.38;88.69;99369.59;5074366;28;19927;-70
2023/12/06 05:46:52;;;;;;;;;;;;;;;0.39;89.10;99373.81;5074595;28;20332;-70
2023/12/06 05:49:20;;;;;;;;;;;;;;;0.39;88.63;99368.78;5074651;28;20019;-70
2023/12/06 05:51:51;;;;;;;;;;;;;;;0.44;89.41;99377.31;5074306;28;20417;-70
2023/12/06 05:54:19;;;;;;;;;;;;;;;0.49;88.99;99376.69;5074405;28;20018;-70
2023/12/06 05:56:48;;;;;;;;;;;;;;;0.50;89.50;99375.03;5074544;28;19921;-70
2023/12/06 05:59:16;;;;;;;;;;;;;;;0.49;89.45;99374.19;5074465;28;19930;-70
2023/12/06 06:01:45;;;;;;;;;;;;;;;0.48;89.52;99372.47;5073981;28;19928;-70
2023/12/06 06:04:13;;;;;;;;;;;;;;;0.51;89.02;99372.56;5073172;28;19966;-70
2023/12/06 06:06:42;;;;;;;;;;;;;;;0.55;89.50;99368.53;5074174;28;19927;-70
2023/12/06 06:09:13;;;;;;;;;;;;;;;0.55;89.20;99368.53;5090190;28;20012;-70
2023/12/06 06:11:42;;;;;;;;;;;;;;;0.55;90.10;99368.53;5074006;28;19948;-70
2023/12/06 06:14:11;;;;;;;;;;;;;;;0.61;89.54;99368.72;5073936;28;19920;-70
2023/12/06 06:16:39;;;;;;;;;;;;;;;0.62;89.40;99366.25;5073981;28;19924;-70
2023/12/06 06:19:08;;;;;;;;;;;;;;;0.65;89.47;99363.84;5073841;28;19921;-70
2023/12/06 06:21:36;;;;;;;;;;;;;;;0.65;89.13;99370.50;5074169;28;20298;-70
2023/12/06 06:24:05;;;;;;;;;;;;;;;0.69;89.23;99372.34;5074265;28;19921;-70
2023/12/06 06:26:35;;;;;;;;;;;;;;;0.71;89.30;99375.75;5072739;28;19920;-70
2023/12/06 06:29:03;;;;;;;;;;;;;;;0.70;89.37;99379.06;5075061;28;20263;-70
2023/12/06 06:31:32;;;;;;;;;;;;;;;0.68;89.50;99375.63;5074133;28;20363;-70
2023/12/06 06:34:02;;;;;;;;;;;;;;;0.66;90.05;99372.22;5089606;28;19920;-70
2023/12/06 06:36:31;;;;;;;;;;;;;;;0.66;89.48;99374.75;5074155;28;19920;-70
2023/12/06 06:39:00;;;;;;;;;;;;;;;0.66;89.48;99374.75;5074012;28;20384;-70
2023/12/06 06:41:28;;;;;;;;;;;;;;;0.68;89.71;99378.16;5072591;28;20007;-69
2023/12/06 06:43:58;;;;;;;;;;;;;;;0.66;89.63;99383.13;5073991;28;19924;-69
2023/12/06 06:46:27;;;;;;;;;;;;;;;0.64;89.57;99379.72;5074016;28;19955;-70
2023/12/06 06:48:56;;;;;;;;;;;;;;;0.68;89.76;99380.66;5073930;28;19921;-70
2023/12/06 06:51:31;;;;;;;;;;;;;;;0.72;90.11;99384.97;5073962;28;20309;-70
2023/12/06 06:54:00;;;;;;;;;;;;;;;0.72;90.08;99387.47;5072674;28;20363;-70
2023/12/06 06:56:28;;;;;;;;;;;;;;;0.70;89.71;99384.06;5073870;28;19927;-70
2023/12/06 06:58:58;;;;;;;;;;;;;;;0.68;89.98;99380.66;5073723;28;19963;-70
2023/12/06 07:01:27;;;;;;;;;;;;;;;0.71;90.24;99387.44;5073585;28;19924;-70
2023/12/06 07:03:56;;;;;;;;;;;;;;;0.73;90.08;99388.34;5073594;28;19921;-70
2023/12/06 07:06:24;;;;;;;;;;;;;;;0.76;90.25;99388.44;5073338;28;19921;-70
2023/12/06 07:08:53;;;;;;;;;;;;;;;0.77;90.69;99385.97;5073455;28;20019;-70
2023/12/06 07:11:22;;;;;;;;;;;;;;;0.76;90.83;99386.81;5072411;28;19920;-70
2023/12/06 07:13:51;;;;;;;;;;;;;;;0.80;91.04;99396.13;5089102;28;20372;-70
2023/12/06 07:16:21;;;;;;;;;;;;;;;0.82;90.70;99396.16;5073349;28;19966;-70
2023/12/06 07:18:51;;;;;;;;;;;;;;;0.80;90.59;99396.13;5073677;28;19920;-70
2023/12/06 07:21:20;;;;;;;;;;;;;;;0.80;91.13;99401.16;5074194;28;20244;-70
2023/12/06 07:23:49;;;;;;;;;;;;;;;0.84;90.50;99392.09;5074799;28;20351;-70
2023/12/06 07:26:18;;;;;;;;;;;;;;;0.85;91.08;99394.63;5076985;28;19924;-70
2023/12/06 07:28:47;;;;;;;;;;;;;;;0.89;91.24;99396.44;5076007;28;20029;-70
2023/12/06 07:31:15;;;;;;;;;;;;;;;0.91;90.62;99394.81;5076876;28;19920;-70
2023/12/06 07:33:47;;;;;;;;;;;;;;;0.94;91.08;99399.94;5076857;28;19921;-70
2023/12/06 07:36:16;;;;;;;;;;;;;;;0.92;91.02;99404.06;5077242;28;20016;-70
2023/12/06 07:38:45;;;;;;;;;;;;;;;0.90;91.19;99403.19;5076850;28;19966;-70
2023/12/06 07:41:13;;;;;;;;;;;;;;;0.92;91.30;99400.69;5076817;28;19920;-70
2023/12/06 07:43:42;;;;;;;;;;;;;;;0.92;91.27;99400.69;5076807;28;19966;-70
2023/12/06 07:46:11;;;;;;;;;;;;;;;0.94;91.06;99402.47;5075708;28;19928;-70
2023/12/06 07:48:39;;;;;;;;;;;;;;;0.95;91.23;99401.66;5076931;28;19920;-70
2023/12/06 07:51:09;;;;;;;;;;;;;;;0.94;91.03;99404.09;5076898;28;19924;-70
2023/12/06 07:53:38;;;;;;;;;;;;;;;0.96;90.74;99407.56;5076488;28;19930;-70
2023/12/06 07:56:07;;;;;;;;;;;;;;;0.97;91.49;99405.06;5075152;28;19921;-70
2023/12/06 07:58:35;;;;;;;;;;;;;;;0.99;91.06;99403.47;5076629;28;20371;-71
2023/12/06 08:01:05;;;;;;;;;;;;;;;1.01;91.53;99406.88;5071334;28;20346;-70
2023/12/06 08:03:34;;;;;;;;;;;;;;;1.00;91.77;99404.31;5055146;28;19921;-70
2023/12/06 08:06:05;;;;;;;;;;;;;;;1.02;91.07;99407.75;5056392;28;19920;-70
2023/12/06 08:08:35;;;;;;;;;;;;;;;1.03;91.97;99405.25;5056567;28;20367;-71
2023/12/06 08:11:04;;;;;;;;;;;;;;;1.02;91.00;99408.59;5056201;28;19970;-71
2023/12/06 08:13:33;;;;;;;;;;;;;;;1.03;91.69;99409.47;5056162;28;20004;-71
2023/12/06 08:16:01;;;;;;;;;;;;;;;1.02;91.72;99401.06;5056012;28;19921;-71
2023/12/06 08:18:30;;;;;;;;;;;;;;;1.03;91.65;99400.25;5056021;28;19921;-71
2023/12/06 08:20:58;;;;;;;;;;;;;;;1.03;91.50;99399.41;5056291;28;20441;-71
2023/12/06 08:23:26;;;;;;;;;;;;;;;1.05;92.05;99397.78;5056183;28;20295;-71
2023/12/06 08:25:57;;;;;;;;;;;;;;;1.03;91.47;99405.25;5056296;28;19974;-71
2023/12/06 08:28:26;;;;;;;;;;;;;;;1.04;92.00;99406.97;5056066;28;19928;-71
2023/12/06 08:30:55;;;;;;;;;;;;;;;1.03;92.08;99405.25;5054936;28;20390;-71
2023/12/06 08:33:23;;;;;;;;;;;;;;;1.05;92.05;99401.16;5056128;28;20358;-71
2023/12/06 08:35:52;;;;;;;;;;;;;;;1.07;91.31;99406.22;5053351;28;20445;-71
2023/12/06 08:38:21;;;;;;;;;;;;;;;1.10;91.80;99402.16;5055671;28;19927;-72
2023/12/06 08:40:49;;;;;;;;;;;;;;;1.14;92.24;99411.50;5055529;28;19970;-71
2023/12/06 08:43:19;;;;;;;;;;;;;;;1.17;91.54;99408.25;5055822;28;20425;-71
2023/12/06 08:45:47;;;;;;;;;;;;;;;1.19;92.06;99411.66;5056055;28;20027;-71
2023/12/06 08:48:16;;;;;;;;;;;;;;;1.21;91.98;99410.88;5055804;28;19968;-71
2023/12/06 08:50:44;;;;;;;;;;;;;;;1.23;91.92;99411.78;5055704;28;19950;-72
2023/12/06 08:53:13;;;;;;;;;;;;;;;1.28;92.21;99417.81;5055343;28;20007;-73
2023/12/06 08:55:43;;;;;;;;;;;;;;;1.34;91.96;99415.47;5055243;28;20375;-72
2023/12/06 08:58:11;;;;;;;;;;;;;;;1.33;91.81;99416.31;5055089;28;19921;-73
2023/12/06 09:00:42;;;;;;;;;;;;;;;1.35;91.47;99419.72;5055431;28;19956;-73
2023/12/06 09:03:11;;;;;;;;;;;;;;;1.38;91.89;99428.16;5055296;28;19921;-73
2023/12/06 09:05:40;;;;;;;;;;;;;;;1.42;92.39;99427.47;5054289;28;20015;-74
2023/12/06 09:08:11;;;;;;;;;;;;;;;1.40;92.16;99427.41;5055201;28;19920;-73
2023/12/06 09:10:40;;;;;;;;;;;;;;;1.37;92.18;99428.97;5055406;28;20016;-73
2023/12/06 09:13:08;;;;;;;;;;;;;;;1.40;91.86;99422.38;5054865;28;19921;-73
2023/12/06 09:15:37;;;;;;;;;;;;;;;1.45;92.17;99420.00;5055096;28;19920;-72
2023/12/06 09:18:07;;;;;;;;;;;;;;;1.43;92.22;99426.63;5054030;28;19927;-72
2023/12/06 09:20:35;;;;;;;;;;;;;;;1.45;92.17;99425.03;5053402;28;19920;-72
2023/12/06 09:23:04;;;;;;;;;;;;;;;1.44;91.85;99420.81;5055248;28;19920;-72
2023/12/06 09:25:32;;;;;;;;;;;;;;;1.42;92.02;99424.94;5053906;28;19921;-72
2023/12/06 09:28:03;;;;;;;;;;;;;;;1.44;91.99;99429.19;5055331;28;19928;-72
2023/12/06 09:30:31;;;;;;;;;;;;;;;1.48;92.11;99425.13;5054982;28;20019;-72
2023/12/06 09:33:00;;;;;;;;;;;;;;;1.49;91.96;99421.81;5054869;28;19921;-71
2023/12/06 09:35:30;;;;;;;;;;;;;;;1.48;91.27;99420.97;5054817;28;19964;-71
2023/12/06 09:37:58;;;;;;;;;;;;;;;1.50;91.10;99418.47;5054614;28;20294;-71
2023/12/06 09:40:28;;;;;;;;;;;;;;;1.48;91.75;99417.59;5054636;28;19928;-71
2023/12/06 09:42:59;;;;;;;;;;;;;;;1.49;91.07;99417.63;5054754;28;19920;-72
2023/12/06 09:45:29;;;;;;;;;;;;;;;1.49;91.09;99411.75;5054731;28;20398;-71
2023/12/06 09:47:58;;;;;;;;;;;;;;;1.50;91.69;99409.28;5054086;28;20290;-71
2023/12/06 09:50:27;;;;;;;;;;;;;;;1.53;91.50;99406.00;5053282;28;19970;-71
2023/12/06 09:52:57;;;;;;;;;;;;;;;1.57;91.41;99411.16;5054628;28;19921;-71
2023/12/06 09:55:26;;;;;;;;;;;;;;;1.64;91.40;99412.19;5054464;28;19927;-71
2023/12/06 09:57:56;;;;;;;;;;;;;;;1.66;91.62;99406.41;5054587;28;19920;-71
2023/12/06 10:00:25;;;;;;;;;;;;;;;1.73;91.47;99403.28;5054445;28;19956;-71
2023/12/06 10:02:53;;;;;;;;;;;;;;;1.74;91.55;99405.00;5052933;28;19924;-71
2023/12/06 10:05:22;;;;;;;;;;;;;;;1.76;91.43;99402.50;5054047;28;19921;-71
2023/12/06 10:07:53;;;;;;;;;;;;;;;1.75;90.96;99405.84;5053791;28;19920;-71
2023/12/06 10:10:23;;;;;;;;;;;;;;;1.77;90.98;99399.19;5054683;28;19921;-71
2023/12/06 10:12:55;;;;;;;;;;;;;;;1.75;91.03;99398.31;5054335;28;19921;-71
2023/12/06 10:15:24;;;;;;;;;;;;;;;1.75;90.42;99388.25;5054147;28;19921;-71
2023/12/06 10:17:53;;;;;;;;;;;;;;;1.76;91.11;99392.44;5052662;28;20020;-71
2023/12/06 10:20:22;;;;;;;;;;;;;;;1.78;90.48;99390.81;5053913;28;20008;-71
2023/12/06 10:22:52;;;;;;;;;;;;;;;1.76;90.51;99387.41;5054212;28;19967;-71
2023/12/06 10:25:21;;;;;;;;;;;;;;;1.71;90.70;99384.78;5054025;28;19920;-71
2023/12/06 10:27:51;;;;;;;;;;;;;;;1.71;91.12;99384.78;5053777;28;19921;-72
2023/12/06 10:30:21;;;;;;;;;;;;;;;1.72;90.15;99381.47;5054119;28;19935;-72
2023/12/06 10:32:51;;;;;;;;;;;;;;;1.73;90.67;99382.28;5054003;28;19982;-72
2023/12/06 10:35:21;;;;;;;;;;;;;;;1.76;90.40;99379.88;5035850;28;19925;-72
2023/12/06 10:37:51;;;;;;;;;;;;;;;1.79;90.22;99382.47;5053687;28;19920;-72
2023/12/06 10:40:23;;;;;;;;;;;;;;;1.81;91.04;99383.38;5053969;28;19920;-71
2023/12/06 10:42:58;;;;;;;;;;;;;;;1.79;90.77;99380.81;5053974;28;19986;-71
2023/12/06 10:45:26;;;;;;;;;;;;;;;1.78;90.64;99380.75;5053915;28;20370;-71
2023/12/06 10:47:56;;;;;;;;;;;;;;;1.78;90.11;99376.59;5054027;28;19962;-71
2023/12/06 10:50:25;;;;;;;;;;;;;;;1.76;90.73;99377.34;5053590;28;19921;-71
2023/12/06 10:52:54;;;;;;;;;;;;;;;1.76;90.70;99377.34;5052500;28;19921;-72
2023/12/06 10:55:23;;;;;;;;;;;;;;;1.79;90.57;99373.28;5052395;28;19928;-71
2023/12/06 10:57:55;;;;;;;;;;;;;;;1.81;90.14;99368.28;5053392;28;20272;-71
2023/12/06 11:00:24;;;;;;;;;;;;;;;1.82;90.51;99362.44;5057553;28;20015;-71
2023/12/06 11:02:54;;;;;;;;;;;;;;;1.81;90.28;99365.75;5057307;28;20434;-71
2023/12/06 11:05:24;;;;;;;;;;;;;;;1.85;90.52;99367.53;5056231;28;19921;-70
2023/12/06 11:08:04;;;;;;;;;;;;;;;1.84;90.82;99368.38;5057736;28;20019;-70
2023/12/06 11:10:39;;;;;;;;;;;;;;;1.87;90.60;99360.94;5057654;28;20019;-70
2023/12/06 11:13:15;;;;;;;;;;;;;;;1.88;90.69;99360.94;5056301;28;19927;-70
2023/12/06 11:15:51;;;;;;;;;;;;;;;1.91;90.53;99348.47;5057305;28;19925;-70
2023/12/06 11:18:20;;;;;;;;;;;;;;;1.91;90.36;99351.00;5057582;28;19925;-69
2023/12/06 11:20:49;;;;;;;;;;;;;;;1.93;90.22;99358.56;5057383;28;20339;-70
2023/12/06 11:23:19;;;;;;;;;;;;;;;1.91;90.18;99356.03;5057363;28;19920;-70
2023/12/06 11:25:49;;;;;;;;;;;;;;;1.92;90.82;99349.34;5057672;28;19920;-70
2023/12/06 11:28:20;;;;;;;;;;;;;;;1.90;90.62;99350.94;5057007;28;19927;-69
2023/12/06 11:30:49;;;;;;;;;;;;;;;1.85;90.52;99347.41;5057282;28;20354;-70
2023/12/06 11:33:17;;;;;;;;;;;;;;;1.84;90.15;99341.56;5057068;28;19927;-70
2023/12/06 11:35:50;;;;;;;;;;;;;;;1.83;90.24;99339.00;5057077;28;20022;-70
2023/12/06 11:38:19;;;;;;;;;;;;;;;1.86;90.64;99339.06;5056509;28;19925;-69
2023/12/06 11:40:52;;;;;;;;;;;;;;;1.88;90.85;99342.47;5056746;28;19951;-69
2023/12/06 11:43:32;;;;;;;;;;;;;;;1.89;90.47;99339.16;5059483;28;19924;-70
2023/12/06 11:46:04;;;;;;;;;;;;;;;1.84;90.61;99346.59;5076069;28;20030;-70
2023/12/06 11:48:34;;;;;;;;;;;;;;;1.82;90.46;99342.31;5077096;28;20359;-69
2023/12/06 11:51:03;;;;;;;;;;;;;;;1.88;90.16;99343.34;5077028;28;19920;-70
2023/12/06 11:53:31;;;;;;;;;;;;;;;1.94;90.33;99345.19;5076765;28;20420;-70
2023/12/06 11:56:01;;;;;;;;;;;;;;;1.94;90.11;99347.72;5076765;28;20263;-70
2023/12/06 11:58:31;;;;;;;;;;;;;;;1.99;90.39;99348.69;5092341;28;19971;-71
2023/12/06 12:01:01;;;;;;;;;;;;;;;2.02;90.24;99346.22;5076904;28;20370;-70
2023/12/06 12:03:32;;;;;;;;;;;;;;;2.02;90.23;99346.22;5075983;28;20015;-71
2023/12/06 12:06:01;;;;;;;;;;;;;;;1.97;90.05;99342.72;5076354;28;19986;-70
2023/12/06 12:08:29;;;;;;;;;;;;;;;1.99;90.20;99336.09;5076066;28;20359;-70
2023/12/06 12:10:58;;;;;;;;;;;;;;;1.94;90.25;99335.94;5075148;28;19978;-69
2023/12/06 12:13:27;;;;;;;;;;;;;;;1.94;90.54;99332.59;5076278;28;19920;-70
2023/12/06 12:15:58;;;;;;;;;;;;;;;1.95;90.62;99334.28;5076416;28;19920;-69
2023/12/06 12:18:32;;;;;;;;;;;;;;;1.96;90.03;99333.50;5076253;28;19921;-69
2023/12/06 12:21:06;;;;;;;;;;;;;;;1.97;90.29;99322.59;5076241;28;19920;-69
2023/12/06 12:23:35;;;;;;;;;;;;;;;1.92;90.02;99331.72;5076443;28;19926;-69
2023/12/06 12:26:04;;;;;;;;;;;;;;;1.85;90.72;99329.81;5076007;28;19920;-69
2023/12/06 12:28:33;;;;;;;;;;;;;;;1.86;90.09;99329.00;5075802;28;20282;-69
2023/12/06 12:31:06;;;;;;;;;;;;;;;1.89;91.06;99329.09;5058250;28;19921;-68
2023/12/06 12:33:36;;;;;;;;;;;;;;;1.95;90.19;99324.22;5075729;28;20390;-69
2023/12/06 12:36:05;;;;;;;;;;;;;;;1.96;90.61;99313.38;5075685;28;20010;-69
2023/12/06 12:38:39;;;;;;;;;;;;;;;1.91;90.04;99312.38;5074494;28;19938;-70
2023/12/06 12:41:09;;;;;;;;;;;;;;;1.90;90.73;99316.56;5074828;28;20294;-70
2023/12/06 12:43:37;;;;;;;;;;;;;;;1.88;90.12;99308.13;5075936;28;20114;-69
2023/12/06 12:46:07;;;;;;;;;;;;;;;1.89;90.75;99319.03;5075675;28;19921;-69
2023/12/06 12:48:36;;;;;;;;;;;;;;;1.86;90.47;99317.28;5076779;28;20266;-69
2023/12/06 12:51:08;;;;;;;;;;;;;;;1.81;90.24;99316.31;5075410;28;19974;-69
2023/12/06 12:53:37;;;;;;;;;;;;;;;1.86;90.40;99316.44;5075702;28;19974;-70
2023/12/06 12:56:08;;;;;;;;;;;;;;;1.90;90.63;99311.53;5074385;28;19920;-69
2023/12/06 12:58:37;;;;;;;;;;;;;;;1.91;90.45;99317.41;5075606;28;20003;-70
2023/12/06 13:01:08;;;;;;;;;;;;;;;1.93;90.31;99310.75;5075580;28;19956;-69
2023/12/06 13:03:37;;;;;;;;;;;;;;;1.93;90.71;99306.59;5074117;28;19920;-70
2023/12/06 13:06:06;;;;;;;;;;;;;;;1.91;90.44;99312.38;5075162;28;19921;-70
2023/12/06 13:08:35;;;;;;;;;;;;;;;1.88;90.53;99312.28;5074188;28;19952;-70